sensor_id;sensor_type;location;lat;lon;timestamp;temperature;humidity
52859;DHT22;38721;53.098;6.596;2022-12-07T00:01:50;4.00;99.90
52859;DHT22;38721;53.098;6.596;2022-12-07T00:04:19;4.00;99.90
52859;DHT22;38721;53.098;6.596;2022-12-07T00:06:46;4.00;99.90
52859;DHT22;38721;53.098;6.596;2022-12-07T00:09:17;4.00;99.90
52859;DHT22;38721;53.098;6.596;2022-12-07T00:11:43;4.10;99.90
52859;DHT22;38721;53.098;6.596;2022-12-07T00:14:14;4.10;99.90
52859;DHT22;38721;53.098;6.596;2022-12-07T00:16:41;4.10;99.90
52859;DHT22;38721;53.098;6.596;2022-12-07T00:19:10;4.10;99.90
52859;DHT22;38721;53.098;6.596;2022-12-07T00:21:36;4.10;99.90
52859;DHT22;38721;53.098;6.596;2022-12-07T00:24:04;4.00;99.90
52859;DHT22;38721;53.098;6.596;2022-12-07T00:26:33;3.90;99.90
52859;DHT22;38721;53.098;6.596;2022-12-07T00:29:02;3.80;99.90
52859;DHT22;38721;53.098;6.596;2022-12-07T00:31:34;3.70;99.90
52859;DHT22;38721;53.098;6.596;2022-12-07T00:34:05;3.70;99.90
52859;DHT22;38721;53.098;6.596;2022-12-07T00:36:31;3.70;99.90
52859;DHT22;38721;53.098;6.596;2022-12-07T00:39:00;3.70;99.90
52859;DHT22;38721;53.098;6.596;2022-12-07T00:41:27;3.70;99.90
52859;DHT22;38721;53.098;6.596;2022-12-07T00:43:53;3.70;99.90
52859;DHT22;38721;53.098;6.596;2022-12-07T00:46:20;3.60;99.90
52859;DHT22;38721;53.098;6.596;2022-12-07T00:48:50;3.60;99.90
52859;DHT22;38721;53.098;6.596;2022-12-07T00:51:18;3.60;99.90
52859;DHT22;38721;53.098;6.596;2022-12-07T00:53:44;3.70;99.90
52859;DHT22;38721;53.098;6.596;2022-12-07T00:56:16;3.70;99.90
52859;DHT22;38721;53.098;6.596;2022-12-07T00:58:43;3.70;99.90
52859;DHT22;38721;53.098;6.596;2022-12-07T01:01:10;3.70;99.90
52859;DHT22;38721;53.098;6.596;2022-12-07T01:03:37;3.70;99.90
52859;DHT22;38721;53.098;6.596;2022-12-07T01:06:03;3.80;99.90
52859;DHT22;38721;53.098;6.596;2022-12-07T01:08:29;3.90;99.90
52859;DHT22;38721;53.098;6.596;2022-12-07T01:11:04;3.90;99.90
52859;DHT22;38721;53.098;6.596;2022-12-07T01:13:32;4.00;99.90
52859;DHT22;38721;53.098;6.596;2022-12-07T01:16:00;4.10;99.90
52859;DHT22;38721;53.098;6.596;2022-12-07T01:18:31;4.00;99.90
52859;DHT22;38721;53.098;6.596;2022-12-07T01:21:15;4.10;99.90
52859;DHT22;38721;53.098;6.596;2022-12-07T01:23:42;4.10;99.90
52859;DHT22;38721;53.098;6.596;2022-12-07T01:26:14;4.10;99.90
52859;DHT22;38721;53.098;6.596;2022-12-07T01:28:40;4.10;99.90
52859;DHT22;38721;53.098;6.596;2022-12-07T01:31:18;4.10;99.90
52859;DHT22;38721;53.098;6.596;2022-12-07T01:33:47;4.00;99.90
52859;DHT22;38721;53.098;6.596;2022-12-07T01:38:42;4.00;99.90
52859;DHT22;38721;53.098;6.596;2022-12-07T01:41:09;4.00;99.90
52859;DHT22;38721;53.098;6.596;2022-12-07T01:43:36;4.00;99.90
52859;DHT22;38721;53.098;6.596;2022-12-07T01:46:04;4.10;99.90
52859;DHT22;38721;53.098;6.596;2022-12-07T01:48:39;4.20;99.90
52859;DHT22;38721;53.098;6.596;2022-12-07T01:51:11;4.20;99.90
52859;DHT22;38721;53.098;6.596;2022-12-07T01:53:42;4.10;99.90
52859;DHT22;38721;53.098;6.596;2022-12-07T01:59:31;4.10;99.90
52859;DHT22;38721;53.098;6.596;2022-12-07T02:01:57;4.00;99.90
52859;DHT22;38721;53.098;6.596;2022-12-07T02:04:24;4.00;99.90
52859;DHT22;38721;53.098;6.596;2022-12-07T02:06:50;3.90;99.90
52859;DHT22;38721;53.098;6.596;2022-12-07T02:09:17;3.90;99.90
52859;DHT22;38721;53.098;6.596;2022-12-07T02:11:46;3.90;99.90
52859;DHT22;38721;53.098;6.596;2022-12-07T02:14:12;3.90;99.90
52859;DHT22;38721;53.098;6.596;2022-12-07T02:16:57;3.80;99.90
52859;DHT22;38721;53.098;6.596;2022-12-07T02:19:33;3.90;99.90
52859;DHT22;38721;53.098;6.596;2022-12-07T02:27:50;3.80;99.90
52859;DHT22;38721;53.098;6.596;2022-12-07T02:30:20;3.80;99.90
52859;DHT22;38721;53.098;6.596;2022-12-07T02:33:14;3.80;99.90
52859;DHT22;38721;53.098;6.596;2022-12-07T02:35:53;3.90;99.90
52859;DHT22;38721;53.098;6.596;2022-12-07T02:38:26;3.90;99.90
52859;DHT22;38721;53.098;6.596;2022-12-07T02:44:24;3.90;99.90
52859;DHT22;38721;53.098;6.596;2022-12-07T02:46:46;4.00;99.90
52859;DHT22;38721;53.098;6.596;2022-12-07T02:49:14;4.00;99.90
52859;DHT22;38721;53.098;6.596;2022-12-07T02:51:46;4.20;99.90
52859;DHT22;38721;53.098;6.596;2022-12-07T02:54:13;4.30;99.90
52859;DHT22;38721;53.098;6.596;2022-12-07T03:07:55;4.60;99.90
52859;DHT22;38721;53.098;6.596;2022-12-07T03:13:17;4.60;99.90
52859;DHT22;38721;53.098;6.596;2022-12-07T03:18:35;4.60;99.90
52859;DHT22;38721;53.098;6.596;2022-12-07T03:21:08;4.60;99.90
52859;DHT22;38721;53.098;6.596;2022-12-07T03:23:37;4.70;99.90
52859;DHT22;38721;53.098;6.596;2022-12-07T03:26:05;4.60;99.90
52859;DHT22;38721;53.098;6.596;2022-12-07T03:28:38;4.50;99.90
52859;DHT22;38721;53.098;6.596;2022-12-07T03:31:22;4.50;99.90
52859;DHT22;38721;53.098;6.596;2022-12-07T03:34:01;4.40;99.90
52859;DHT22;38721;53.098;6.596;2022-12-07T03:36:54;4.40;99.90
52859;DHT22;38721;53.098;6.596;2022-12-07T03:39:30;4.40;99.90
52859;DHT22;38721;53.098;6.596;2022-12-07T03:41:59;4.40;99.90
52859;DHT22;38721;53.098;6.596;2022-12-07T03:44:27;4.30;99.90
52859;DHT22;38721;53.098;6.596;2022-12-07T03:47:01;4.30;99.90
52859;DHT22;38721;53.098;6.596;2022-12-07T03:49:40;4.30;99.90
52859;DHT22;38721;53.098;6.596;2022-12-07T03:52:31;4.30;99.90
52859;DHT22;38721;53.098;6.596;2022-12-07T03:55:18;4.30;99.90
52859;DHT22;38721;53.098;6.596;2022-12-07T03:57:48;4.20;99.90
52859;DHT22;38721;53.098;6.596;2022-12-07T04:00:16;4.30;99.90
52859;DHT22;38721;53.098;6.596;2022-12-07T04:02:42;4.20;99.90
52859;DHT22;38721;53.098;6.596;2022-12-07T04:05:08;4.20;99.90
52859;DHT22;38721;53.098;6.596;2022-12-07T04:07:34;4.20;99.90
52859;DHT22;38721;53.098;6.596;2022-12-07T04:09:59;4.20;99.90
52859;DHT22;38721;53.098;6.596;2022-12-07T04:12:25;4.10;99.90
52859;DHT22;38721;53.098;6.596;2022-12-07T04:14:51;4.00;99.90
52859;DHT22;38721;53.098;6.596;2022-12-07T04:17:17;4.00;99.90
52859;DHT22;38721;53.098;6.596;2022-12-07T04:19:45;3.90;99.90
52859;DHT22;38721;53.098;6.596;2022-12-07T04:22:11;3.80;99.90
52859;DHT22;38721;53.098;6.596;2022-12-07T04:24:37;3.80;99.90
52859;DHT22;38721;53.098;6.596;2022-12-07T04:27:02;3.80;99.90
52859;DHT22;38721;53.098;6.596;2022-12-07T04:29:28;3.70;99.90
52859;DHT22;38721;53.098;6.596;2022-12-07T04:31:54;3.60;99.90
52859;DHT22;38721;53.098;6.596;2022-12-07T04:34:20;3.70;99.90
52859;DHT22;38721;53.098;6.596;2022-12-07T04:36:49;3.70;99.90
52859;DHT22;38721;53.098;6.596;2022-12-07T04:39:44;3.60;99.90
52859;DHT22;38721;53.098;6.596;2022-12-07T04:42:11;3.60;99.90
52859;DHT22;38721;53.098;6.596;2022-12-07T04:44:38;3.50;99.90
52859;DHT22;38721;53.098;6.596;2022-12-07T04:47:04;3.50;99.90
52859;DHT22;38721;53.098;6.596;2022-12-07T04:49:29;3.50;99.90
52859;DHT22;38721;53.098;6.596;2022-12-07T04:51:55;3.50;99.90
52859;DHT22;38721;53.098;6.596;2022-12-07T04:54:21;3.50;99.90
52859;DHT22;38721;53.098;6.596;2022-12-07T04:56:50;3.60;99.90
52859;DHT22;38721;53.098;6.596;2022-12-07T04:59:16;3.70;99.90
52859;DHT22;38721;53.098;6.596;2022-12-07T05:01:43;3.70;99.90
52859;DHT22;38721;53.098;6.596;2022-12-07T05:04:09;3.80;99.90
52859;DHT22;38721;53.098;6.596;2022-12-07T05:06:34;4.00;99.90
52859;DHT22;38721;53.098;6.596;2022-12-07T05:09:01;4.00;99.90
52859;DHT22;38721;53.098;6.596;2022-12-07T05:11:29;4.00;99.90
52859;DHT22;38721;53.098;6.596;2022-12-07T05:14:19;4.00;99.90
52859;DHT22;38721;53.098;6.596;2022-12-07T05:16:47;3.80;99.90
52859;DHT22;38721;53.098;6.596;2022-12-07T05:19:14;3.80;99.90
52859;DHT22;38721;53.098;6.596;2022-12-07T05:21:40;3.80;99.90
52859;DHT22;38721;53.098;6.596;2022-12-07T05:24:07;3.80;99.90
52859;DHT22;38721;53.098;6.596;2022-12-07T05:26:33;3.80;99.90
52859;DHT22;38721;53.098;6.596;2022-12-07T05:29:00;3.80;99.90
52859;DHT22;38721;53.098;6.596;2022-12-07T05:31:26;3.70;99.90
52859;DHT22;38721;53.098;6.596;2022-12-07T05:33:56;3.70;99.90
52859;DHT22;38721;53.098;6.596;2022-12-07T05:36:22;3.70;99.90
52859;DHT22;38721;53.098;6.596;2022-12-07T05:38:48;3.70;99.90
52859;DHT22;38721;53.098;6.596;2022-12-07T05:41:16;3.60;99.90
52859;DHT22;38721;53.098;6.596;2022-12-07T05:44:00;3.50;99.90
52859;DHT22;38721;53.098;6.596;2022-12-07T05:46:26;3.50;99.90
52859;DHT22;38721;53.098;6.596;2022-12-07T05:48:52;3.40;99.90
52859;DHT22;38721;53.098;6.596;2022-12-07T05:51:18;3.30;99.90
52859;DHT22;38721;53.098;6.596;2022-12-07T05:53:44;3.30;99.90
52859;DHT22;38721;53.098;6.596;2022-12-07T05:56:10;3.30;99.90
52859;DHT22;38721;53.098;6.596;2022-12-07T05:58:36;3.20;99.90
52859;DHT22;38721;53.098;6.596;2022-12-07T06:01:20;3.10;99.90
52859;DHT22;38721;53.098;6.596;2022-12-07T06:03:49;3.10;99.90
52859;DHT22;38721;53.098;6.596;2022-12-07T06:06:14;3.10;99.90
52859;DHT22;38721;53.098;6.596;2022-12-07T06:08:40;3.10;99.90
52859;DHT22;38721;53.098;6.596;2022-12-07T06:11:06;3.10;99.90
52859;DHT22;38721;53.098;6.596;2022-12-07T06:13:49;3.00;99.90
52859;DHT22;38721;53.098;6.596;2022-12-07T06:16:18;3.10;99.90
52859;DHT22;38721;53.098;6.596;2022-12-07T06:18:44;3.00;99.90
52859;DHT22;38721;53.098;6.596;2022-12-07T06:21:10;3.10;99.90
52859;DHT22;38721;53.098;6.596;2022-12-07T06:23:35;3.10;99.90
52859;DHT22;38721;53.098;6.596;2022-12-07T06:26:01;3.00;99.90
52859;DHT22;38721;53.098;6.596;2022-12-07T06:28:27;3.10;99.90
52859;DHT22;38721;53.098;6.596;2022-12-07T06:31:02;3.20;99.90
52859;DHT22;38721;53.098;6.596;2022-12-07T06:33:28;3.30;99.90
52859;DHT22;38721;53.098;6.596;2022-12-07T06:35:54;3.50;99.90
52859;DHT22;38721;53.098;6.596;2022-12-07T06:38:20;3.60;99.90
52859;DHT22;38721;53.098;6.596;2022-12-07T06:40:46;3.60;99.90
52859;DHT22;38721;53.098;6.596;2022-12-07T06:43:14;3.50;99.90
52859;DHT22;38721;53.098;6.596;2022-12-07T06:45:41;3.50;99.90
52859;DHT22;38721;53.098;6.596;2022-12-07T06:48:06;3.40;99.90
52859;DHT22;38721;53.098;6.596;2022-12-07T06:50:32;3.50;99.90
52859;DHT22;38721;53.098;6.596;2022-12-07T06:53:01;3.40;99.90
52859;DHT22;38721;53.098;6.596;2022-12-07T06:55:28;3.30;99.90
52859;DHT22;38721;53.098;6.596;2022-12-07T06:57:56;3.20;99.90
52859;DHT22;38721;53.098;6.596;2022-12-07T07:00:22;3.10;99.90
52859;DHT22;38721;53.098;6.596;2022-12-07T07:02:48;3.10;99.90
52859;DHT22;38721;53.098;6.596;2022-12-07T07:05:14;3.00;99.90
52859;DHT22;38721;53.098;6.596;2022-12-07T07:07:41;3.00;99.90
52859;DHT22;38721;53.098;6.596;2022-12-07T07:10:07;2.90;99.90
52859;DHT22;38721;53.098;6.596;2022-12-07T07:12:33;2.90;99.90
52859;DHT22;38721;53.098;6.596;2022-12-07T07:14:58;2.90;99.90
52859;DHT22;38721;53.098;6.596;2022-12-07T07:17:24;2.90;99.90
52859;DHT22;38721;53.098;6.596;2022-12-07T07:19:53;3.00;99.90
52859;DHT22;38721;53.098;6.596;2022-12-07T07:22:18;3.00;99.90
52859;DHT22;38721;53.098;6.596;2022-12-07T07:24:45;3.10;99.90
52859;DHT22;38721;53.098;6.596;2022-12-07T07:27:14;3.10;99.90
52859;DHT22;38721;53.098;6.596;2022-12-07T07:29:39;3.20;99.90
52859;DHT22;38721;53.098;6.596;2022-12-07T07:32:05;3.10;99.90
52859;DHT22;38721;53.098;6.596;2022-12-07T07:34:31;3.30;99.90
52859;DHT22;38721;53.098;6.596;2022-12-07T07:36:57;3.20;99.90
52859;DHT22;38721;53.098;6.596;2022-12-07T07:39:22;3.20;99.90
52859;DHT22;38721;53.098;6.596;2022-12-07T07:41:48;3.20;99.90
52859;DHT22;38721;53.098;6.596;2022-12-07T07:44:14;3.20;99.90
52859;DHT22;38721;53.098;6.596;2022-12-07T07:46:42;3.20;99.90
52859;DHT22;38721;53.098;6.596;2022-12-07T07:49:09;3.20;99.90
52859;DHT22;38721;53.098;6.596;2022-12-07T07:51:36;3.20;99.90
52859;DHT22;38721;53.098;6.596;2022-12-07T07:54:02;3.10;99.90
52859;DHT22;38721;53.098;6.596;2022-12-07T07:56:28;3.00;99.90
52859;DHT22;38721;53.098;6.596;2022-12-07T07:58:54;2.90;99.90
52859;DHT22;38721;53.098;6.596;2022-12-07T08:01:20;2.90;99.90
52859;DHT22;38721;53.098;6.596;2022-12-07T08:03:46;2.80;99.90
52859;DHT22;38721;53.098;6.596;2022-12-07T08:06:13;2.70;99.90
52859;DHT22;38721;53.098;6.596;2022-12-07T08:08:39;2.80;99.90
52859;DHT22;38721;53.098;6.596;2022-12-07T08:11:06;2.80;99.90
52859;DHT22;38721;53.098;6.596;2022-12-07T08:13:32;2.90;99.90
52859;DHT22;38721;53.098;6.596;2022-12-07T08:15:57;2.90;99.90
52859;DHT22;38721;53.098;6.596;2022-12-07T08:18:26;3.00;99.90
52859;DHT22;38721;53.098;6.596;2022-12-07T08:26:17;3.30;99.90
52859;DHT22;38721;53.098;6.596;2022-12-07T08:28:52;3.30;99.90
52859;DHT22;38721;53.098;6.596;2022-12-07T08:31:18;3.30;99.90
52859;DHT22;38721;53.098;6.596;2022-12-07T08:33:47;3.30;99.90
52859;DHT22;38721;53.098;6.596;2022-12-07T08:36:14;3.30;99.90
52859;DHT22;38721;53.098;6.596;2022-12-07T08:38:41;3.30;99.90
52859;DHT22;38721;53.098;6.596;2022-12-07T08:41:08;3.30;99.90
52859;DHT22;38721;53.098;6.596;2022-12-07T08:43:34;3.30;99.90
52859;DHT22;38721;53.098;6.596;2022-12-07T08:48:33;3.40;99.90
52859;DHT22;38721;53.098;6.596;2022-12-07T08:51:02;3.50;99.90
52859;DHT22;38721;53.098;6.596;2022-12-07T08:53:28;3.50;99.90
52859;DHT22;38721;53.098;6.596;2022-12-07T08:55:56;3.50;99.90
52859;DHT22;38721;53.098;6.596;2022-12-07T08:58:26;3.50;99.90
52859;DHT22;38721;53.098;6.596;2022-12-07T09:00:52;3.60;99.90
52859;DHT22;38721;53.098;6.596;2022-12-07T09:03:18;3.70;99.90
52859;DHT22;38721;53.098;6.596;2022-12-07T09:05:44;3.70;99.90
52859;DHT22;38721;53.098;6.596;2022-12-07T09:08:10;3.80;99.90
52859;DHT22;38721;53.098;6.596;2022-12-07T09:10:36;3.80;99.90
52859;DHT22;38721;53.098;6.596;2022-12-07T09:13:02;3.80;99.90
52859;DHT22;38721;53.098;6.596;2022-12-07T09:15:30;3.90;99.90
52859;DHT22;38721;53.098;6.596;2022-12-07T09:17:59;4.00;99.90
52859;DHT22;38721;53.098;6.596;2022-12-07T09:23:35;4.10;99.90
52859;DHT22;38721;53.098;6.596;2022-12-07T09:26:01;4.20;99.90
52859;DHT22;38721;53.098;6.596;2022-12-07T09:28:28;4.30;99.90
52859;DHT22;38721;53.098;6.596;2022-12-07T09:30:54;4.50;99.90
52859;DHT22;38721;53.098;6.596;2022-12-07T09:33:20;4.60;99.90
52859;DHT22;38721;53.098;6.596;2022-12-07T09:35:49;4.70;99.90
52859;DHT22;38721;53.098;6.596;2022-12-07T09:38:19;4.70;99.90
52859;DHT22;38721;53.098;6.596;2022-12-07T09:40:45;4.70;99.90
52859;DHT22;38721;53.098;6.596;2022-12-07T09:43:33;4.80;99.90
52859;DHT22;38721;53.098;6.596;2022-12-07T09:46:01;4.80;99.90
52859;DHT22;38721;53.098;6.596;2022-12-07T09:48:36;4.70;99.90
52859;DHT22;38721;53.098;6.596;2022-12-07T09:51:15;4.70;99.90
52859;DHT22;38721;53.098;6.596;2022-12-07T09:53:43;4.60;99.90
52859;DHT22;38721;53.098;6.596;2022-12-07T09:56:14;4.60;99.90
52859;DHT22;38721;53.098;6.596;2022-12-07T10:01:18;4.60;99.90
52859;DHT22;38721;53.098;6.596;2022-12-07T10:03:55;4.70;99.90
52859;DHT22;38721;53.098;6.596;2022-12-07T10:06:24;4.70;99.90
52859;DHT22;38721;53.098;6.596;2022-12-07T10:08:53;4.80;99.90
52859;DHT22;38721;53.098;6.596;2022-12-07T10:11:19;4.80;99.90
52859;DHT22;38721;53.098;6.596;2022-12-07T10:13:52;4.80;99.90
52859;DHT22;38721;53.098;6.596;2022-12-07T10:16:41;4.80;99.90
52859;DHT22;38721;53.098;6.596;2022-12-07T10:23:03;4.80;99.90
52859;DHT22;38721;53.098;6.596;2022-12-07T10:25:36;4.80;99.90
52859;DHT22;38721;53.098;6.596;2022-12-07T10:33:31;4.90;99.90
52859;DHT22;38721;53.098;6.596;2022-12-07T10:35:57;5.00;99.90
52859;DHT22;38721;53.098;6.596;2022-12-07T10:38:28;5.00;99.90
52859;DHT22;38721;53.098;6.596;2022-12-07T10:41:06;5.10;99.90
52859;DHT22;38721;53.098;6.596;2022-12-07T10:43:32;5.20;99.90
52859;DHT22;38721;53.098;6.596;2022-12-07T10:49:18;5.50;99.90
52859;DHT22;38721;53.098;6.596;2022-12-07T11:00:25;5.90;99.90
52859;DHT22;38721;53.098;6.596;2022-12-07T11:37:13;4.50;99.90
52859;DHT22;38721;53.098;6.596;2022-12-07T11:39:47;4.50;99.90
52859;DHT22;38721;53.098;6.596;2022-12-07T11:42:26;4.70;99.90
52859;DHT22;38721;53.098;6.596;2022-12-07T11:51:22;5.10;99.90
52859;DHT22;38721;53.098;6.596;2022-12-07T11:54:22;5.20;99.90
52859;DHT22;38721;53.098;6.596;2022-12-07T11:57:37;5.40;99.90
52859;DHT22;38721;53.098;6.596;2022-12-07T12:00:16;5.60;99.90
52859;DHT22;38721;53.098;6.596;2022-12-07T12:03:09;5.80;99.90
52859;DHT22;38721;53.098;6.596;2022-12-07T12:05:39;5.90;99.90
52859;DHT22;38721;53.098;6.596;2022-12-07T12:08:15;6.00;99.90
52859;DHT22;38721;53.098;6.596;2022-12-07T12:14:09;6.20;99.90
52859;DHT22;38721;53.098;6.596;2022-12-07T12:19:44;6.20;99.90
52859;DHT22;38721;53.098;6.596;2022-12-07T12:22:15;6.20;99.90
52859;DHT22;38721;53.098;6.596;2022-12-07T12:24:49;6.10;99.90
52859;DHT22;38721;53.098;6.596;2022-12-07T12:29:58;6.10;99.90
52859;DHT22;38721;53.098;6.596;2022-12-07T12:32:48;6.00;99.90
52859;DHT22;38721;53.098;6.596;2022-12-07T12:35:28;6.00;99.90
52859;DHT22;38721;53.098;6.596;2022-12-07T12:38:31;6.00;99.90
52859;DHT22;38721;53.098;6.596;2022-12-07T12:41:00;6.00;99.90
52859;DHT22;38721;53.098;6.596;2022-12-07T12:43:49;6.00;99.90
52859;DHT22;38721;53.098;6.596;2022-12-07T12:51:49;6.20;99.90
52859;DHT22;38721;53.098;6.596;2022-12-07T12:54:33;6.20;99.90
52859;DHT22;38721;53.098;6.596;2022-12-07T12:57:29;6.10;99.90
52859;DHT22;38721;53.098;6.596;2022-12-07T13:00:02;6.10;99.90
52859;DHT22;38721;53.098;6.596;2022-12-07T13:02:37;6.00;99.90
52859;DHT22;38721;53.098;6.596;2022-12-07T13:26:19;4.60;99.90
52859;DHT22;38721;53.098;6.596;2022-12-07T13:29:04;4.60;99.90
52859;DHT22;38721;53.098;6.596;2022-12-07T13:34:34;4.50;99.90
52859;DHT22;38721;53.098;6.596;2022-12-07T13:39:51;4.50;99.90
52859;DHT22;38721;53.098;6.596;2022-12-07T13:42:28;4.50;99.90
52859;DHT22;38721;53.098;6.596;2022-12-07T13:44:57;4.40;99.90
52859;DHT22;38721;53.098;6.596;2022-12-07T13:47:38;4.40;99.90
52859;DHT22;38721;53.098;6.596;2022-12-07T13:50:25;4.40;99.90
52859;DHT22;38721;53.098;6.596;2022-12-07T13:53:00;4.40;99.90
52859;DHT22;38721;53.098;6.596;2022-12-07T13:55:30;4.40;99.90
52859;DHT22;38721;53.098;6.596;2022-12-07T13:57:57;4.30;99.90
52859;DHT22;38721;53.098;6.596;2022-12-07T14:00:28;4.30;99.90
52859;DHT22;38721;53.098;6.596;2022-12-07T14:06:16;4.40;99.90
52859;DHT22;38721;53.098;6.596;2022-12-07T14:08:43;4.40;99.90
52859;DHT22;38721;53.098;6.596;2022-12-07T14:11:19;4.40;99.90
52859;DHT22;38721;53.098;6.596;2022-12-07T14:16:29;4.30;99.90
52859;DHT22;38721;53.098;6.596;2022-12-07T14:18:59;4.30;99.90
52859;DHT22;38721;53.098;6.596;2022-12-07T14:21:28;4.20;99.90
52859;DHT22;38721;53.098;6.596;2022-12-07T14:26:49;4.10;99.90
52859;DHT22;38721;53.098;6.596;2022-12-07T14:29:30;4.00;99.90
52859;DHT22;38721;53.098;6.596;2022-12-07T14:32:27;4.00;99.90
52859;DHT22;38721;53.098;6.596;2022-12-07T14:37:29;3.90;99.90
52859;DHT22;38721;53.098;6.596;2022-12-07T14:39:56;3.90;99.90
52859;DHT22;38721;53.098;6.596;2022-12-07T14:42:28;3.90;99.90
52859;DHT22;38721;53.098;6.596;2022-12-07T14:44:55;3.80;99.90
52859;DHT22;38721;53.098;6.596;2022-12-07T14:47:21;3.80;99.90
52859;DHT22;38721;53.098;6.596;2022-12-07T14:49:50;3.90;99.90
52859;DHT22;38721;53.098;6.596;2022-12-07T14:52:24;3.90;99.90
52859;DHT22;38721;53.098;6.596;2022-12-07T14:54:59;3.80;99.90
52859;DHT22;38721;53.098;6.596;2022-12-07T14:57:25;4.00;99.90
52859;DHT22;38721;53.098;6.596;2022-12-07T14:59:52;4.00;99.90
52859;DHT22;38721;53.098;6.596;2022-12-07T15:02:18;4.00;99.90
52859;DHT22;38721;53.098;6.596;2022-12-07T15:04:44;4.00;99.90
52859;DHT22;38721;53.098;6.596;2022-12-07T15:07:18;4.00;99.90
52859;DHT22;38721;53.098;6.596;2022-12-07T15:09:44;4.00;99.90
52859;DHT22;38721;53.098;6.596;2022-12-07T15:12:10;4.00;99.90
52859;DHT22;38721;53.098;6.596;2022-12-07T15:14:37;3.90;99.90
52859;DHT22;38721;53.098;6.596;2022-12-07T15:17:07;3.90;99.90
52859;DHT22;38721;53.098;6.596;2022-12-07T15:19:35;3.80;99.90
52859;DHT22;38721;53.098;6.596;2022-12-07T15:22:01;3.80;99.90
52859;DHT22;38721;53.098;6.596;2022-12-07T15:24:27;3.70;99.90
52859;DHT22;38721;53.098;6.596;2022-12-07T15:26:54;3.70;99.90
52859;DHT22;38721;53.098;6.596;2022-12-07T15:29:22;3.60;99.90
52859;DHT22;38721;53.098;6.596;2022-12-07T15:31:52;3.60;99.90
52859;DHT22;38721;53.098;6.596;2022-12-07T15:34:24;3.50;99.90
52859;DHT22;38721;53.098;6.596;2022-12-07T15:36:50;3.50;99.90
52859;DHT22;38721;53.098;6.596;2022-12-07T15:39:20;3.50;99.90
52859;DHT22;38721;53.098;6.596;2022-12-07T15:41:50;3.50;99.90
52859;DHT22;38721;53.098;6.596;2022-12-07T15:44:22;3.50;99.90
52859;DHT22;38721;53.098;6.596;2022-12-07T15:47:07;3.40;99.90
52859;DHT22;38721;53.098;6.596;2022-12-07T15:49:33;3.40;99.90
52859;DHT22;38721;53.098;6.596;2022-12-07T15:52:02;3.30;99.90
52859;DHT22;38721;53.098;6.596;2022-12-07T15:54:30;3.30;99.90
52859;DHT22;38721;53.098;6.596;2022-12-07T15:56:56;3.30;99.90
52859;DHT22;38721;53.098;6.596;2022-12-07T15:59:26;3.30;99.90
52859;DHT22;38721;53.098;6.596;2022-12-07T16:01:56;3.30;99.90
52859;DHT22;38721;53.098;6.596;2022-12-07T16:04:22;3.20;99.90
52859;DHT22;38721;53.098;6.596;2022-12-07T16:06:57;3.20;99.90
52859;DHT22;38721;53.098;6.596;2022-12-07T16:12:17;3.20;99.90
52859;DHT22;38721;53.098;6.596;2022-12-07T16:14:44;3.30;99.90
52859;DHT22;38721;53.098;6.596;2022-12-07T16:17:10;3.30;99.90
52859;DHT22;38721;53.098;6.596;2022-12-07T16:19:38;3.30;99.90
52859;DHT22;38721;53.098;6.596;2022-12-07T16:22:04;3.20;99.90
52859;DHT22;38721;53.098;6.596;2022-12-07T16:24:31;3.20;99.90
52859;DHT22;38721;53.098;6.596;2022-12-07T16:27:03;3.20;99.90
52859;DHT22;38721;53.098;6.596;2022-12-07T16:29:31;3.20;99.90
52859;DHT22;38721;53.098;6.596;2022-12-07T16:31:57;3.30;99.90
52859;DHT22;38721;53.098;6.596;2022-12-07T16:34:27;3.30;99.90
52859;DHT22;38721;53.098;6.596;2022-12-07T16:37:02;3.40;99.90
52859;DHT22;38721;53.098;6.596;2022-12-07T16:39:28;3.40;99.90
52859;DHT22;38721;53.098;6.596;2022-12-07T16:41:58;3.40;99.90
52859;DHT22;38721;53.098;6.596;2022-12-07T16:44:23;3.50;99.90
52859;DHT22;38721;53.098;6.596;2022-12-07T16:46:49;3.50;99.90
52859;DHT22;38721;53.098;6.596;2022-12-07T16:49:16;3.40;99.90
52859;DHT22;38721;53.098;6.596;2022-12-07T16:51:45;3.40;99.90
52859;DHT22;38721;53.098;6.596;2022-12-07T16:54:15;3.50;99.90
52859;DHT22;38721;53.098;6.596;2022-12-07T16:56:41;3.60;99.90
52859;DHT22;38721;53.098;6.596;2022-12-07T16:59:08;3.60;99.90
52859;DHT22;38721;53.098;6.596;2022-12-07T17:01:34;3.60;99.90
52859;DHT22;38721;53.098;6.596;2022-12-07T17:04:01;3.60;99.90
52859;DHT22;38721;53.098;6.596;2022-12-07T17:06:32;3.50;99.90
52859;DHT22;38721;53.098;6.596;2022-12-07T17:09:00;3.50;99.90
52859;DHT22;38721;53.098;6.596;2022-12-07T17:11:29;3.50;99.90
52859;DHT22;38721;53.098;6.596;2022-12-07T17:14:01;3.50;99.90
52859;DHT22;38721;53.098;6.596;2022-12-07T17:16:46;3.50;99.90
52859;DHT22;38721;53.098;6.596;2022-12-07T17:19:18;3.40;99.90
52859;DHT22;38721;53.098;6.596;2022-12-07T17:21:46;3.40;99.90
52859;DHT22;38721;53.098;6.596;2022-12-07T17:24:15;3.40;99.90
52859;DHT22;38721;53.098;6.596;2022-12-07T17:26:47;3.40;99.90
52859;DHT22;38721;53.098;6.596;2022-12-07T17:29:17;3.40;99.90
52859;DHT22;38721;53.098;6.596;2022-12-07T17:31:49;3.40;99.90
52859;DHT22;38721;53.098;6.596;2022-12-07T17:34:15;3.40;99.90
52859;DHT22;38721;53.098;6.596;2022-12-07T17:36:42;3.40;99.90
52859;DHT22;38721;53.098;6.596;2022-12-07T17:39:10;3.40;99.90
52859;DHT22;38721;53.098;6.596;2022-12-07T17:41:39;3.40;99.90
52859;DHT22;38721;53.098;6.596;2022-12-07T17:44:26;3.40;99.90
52859;DHT22;38721;53.098;6.596;2022-12-07T17:46:53;3.40;99.90
52859;DHT22;38721;53.098;6.596;2022-12-07T17:49:27;3.40;99.90
52859;DHT22;38721;53.098;6.596;2022-12-07T17:51:54;3.40;99.90
52859;DHT22;38721;53.098;6.596;2022-12-07T17:54:38;3.50;99.90
52859;DHT22;38721;53.098;6.596;2022-12-07T17:57:04;3.50;99.90
52859;DHT22;38721;53.098;6.596;2022-12-07T17:59:31;3.50;99.90
52859;DHT22;38721;53.098;6.596;2022-12-07T18:01:57;3.50;99.90
52859;DHT22;38721;53.098;6.596;2022-12-07T18:04:26;3.50;99.90
52859;DHT22;38721;53.098;6.596;2022-12-07T18:06:57;3.50;99.90
52859;DHT22;38721;53.098;6.596;2022-12-07T18:09:23;3.50;99.90
52859;DHT22;38721;53.098;6.596;2022-12-07T18:11:49;3.50;99.90
52859;DHT22;38721;53.098;6.596;2022-12-07T18:14:17;3.50;99.90
52859;DHT22;38721;53.098;6.596;2022-12-07T18:16:43;3.40;99.90
52859;DHT22;38721;53.098;6.596;2022-12-07T18:19:10;3.40;99.90
52859;DHT22;38721;53.098;6.596;2022-12-07T18:21:39;3.40;99.90
52859;DHT22;38721;53.098;6.596;2022-12-07T18:24:08;3.30;99.90
52859;DHT22;38721;53.098;6.596;2022-12-07T18:26:34;3.30;99.90
52859;DHT22;38721;53.098;6.596;2022-12-07T18:29:05;3.30;99.90
52859;DHT22;38721;53.098;6.596;2022-12-07T18:31:33;3.20;99.90
52859;DHT22;38721;53.098;6.596;2022-12-07T18:34:03;3.20;99.90
52859;DHT22;38721;53.098;6.596;2022-12-07T18:36:30;3.10;99.90
52859;DHT22;38721;53.098;6.596;2022-12-07T18:38:59;3.10;99.90
52859;DHT22;38721;53.098;6.596;2022-12-07T18:41:25;3.10;99.90
52859;DHT22;38721;53.098;6.596;2022-12-07T18:43:55;3.00;99.90
52859;DHT22;38721;53.098;6.596;2022-12-07T18:46:21;2.90;99.90